Time;durP1;ratioP1;P1;durP2;ratioP2;P2;SDS_P1;SDS_P2;PMS_P1;PMS_P2;Temp;Humidity;BMP_temperature;BMP_pressure;BME280_temperature;BME280_humidity;BME280_pressure;Samples;Min_cycle;Max_cycle;Signal;HPM_P1;HPM_P2
2023/05/18 04:38:49;;;;;;;17.95;6.00;;;;;;;3.28;94.05;97182.81;2092724;27;20558;-56
2023/05/18 04:39:52;;;;;;;15.73;6.45;;;;;;;3.20;94.88;97169.09;2089262;28;20292;-57
2023/05/18 07:23:33;;;;;;;11.25;3.60;;;;;;;11.22;66.20;97207.56;2081883;27;20616;-57
2023/05/18 07:24:35;;;;;;;18.17;3.10;;;;;;;11.26;67.59;97203.91;2080581;28;20199;-57
2023/05/18 07:25:36;;;;;;;13.13;3.85;;;;;;;11.41;66.65;97212.94;2077178;28;20232;-58
2023/05/18 07:26:38;;;;;;;10.27;3.38;;;;;;;11.53;65.30;97203.72;2076621;28;20847;-57
2023/05/18 07:27:40;;;;;;;14.82;3.60;;;;;;;11.44;64.89;97204.09;2075916;28;20540;-57
2023/05/18 07:28:42;;;;;;;11.13;3.30;;;;;;;11.40;64.53;97208.59;2077323;28;20355;-57
2023/05/18 07:29:43;;;;;;;11.77;3.03;;;;;;;11.60;66.21;97202.59;2080126;28;20197;-58
2023/05/18 07:30:44;;;;;;;13.50;3.40;;;;;;;11.61;65.51;97206.03;2079937;28;20331;-58
2023/05/18 07:31:46;;;;;;;16.48;3.25;;;;;;;11.35;65.42;97207.06;2079206;28;20201;-57
2023/05/18 07:32:49;;;;;;;11.00;4.05;;;;;;;11.64;65.61;97207.69;2077209;28;20205;-57
2023/05/18 07:33:51;;;;;;;14.80;3.88;;;;;;;11.71;65.55;97209.16;2080326;28;20201;-57
2023/05/18 07:34:52;;;;;;;12.63;3.88;;;;;;;11.46;64.74;97190.97;2082830;28;20205;-55
2023/05/18 07:35:54;;;;;;;13.70;4.10;;;;;;;11.62;64.61;97207.75;2075355;28;20596;-57
2023/05/18 07:37:02;;;;;;;11.52;3.58;;;;;;;11.96;65.32;97210.78;2076611;28;20282;-58
2023/05/18 07:38:04;;;;;;;8.93;3.20;;;;;;;11.95;64.48;97201.19;2075422;28;20311;-57
2023/05/18 07:39:05;;;;;;;15.40;3.47;;;;;;;12.16;64.12;97208.19;2078996;28;20254;-57
2023/05/18 07:53:07;;;;;;;14.57;3.42;;;;;;;12.58;62.70;97211.63;2084676;28;20597;-57
2023/05/18 07:55:08;;;;;;;9.77;3.75;;;;;;;12.90;61.59;97201.53;2100493;27;20546;-56
2023/05/18 07:57:08;;;;;;;10.65;3.35;;;;;;;13.21;61.07;97195.69;2106306;27;20578;-56
2023/05/18 07:59:10;;;;;;;14.00;3.65;;;;;;;13.25;61.77;97203.44;2084045;28;20576;-57
2023/05/18 08:01:17;;;;;;;10.50;3.58;;;;;;;12.91;59.71;97187.47;2089766;28;20577;-56
2023/05/18 08:03:23;;;;;;;17.45;4.88;;;;;;;13.23;59.85;97191.25;2081761;28;21066;-56
2023/05/18 08:05:34;;;;;;;18.83;4.65;;;;;;;12.63;60.69;97169.53;2083101;28;20573;-57
2023/05/18 08:07:53;;;;;;;11.43;3.90;;;;;;;12.95;59.80;97198.66;2089739;27;20564;-56
2023/05/18 08:10:15;;;;;;;17.33;3.92;;;;;;;13.41;59.30;97207.06;2083273;28;20568;-56
2023/05/18 08:11:16;;;;;;;14.85;4.15;;;;;;;13.47;58.95;97201.53;2087532;28;20765;-56
2023/05/18 08:13:22;;;;;;;14.05;4.50;;;;;;;13.90;59.06;97209.09;2092241;27;20555;-56
2023/05/18 08:14:24;;;;;;;12.93;3.85;;;;;;;14.04;58.97;97206.66;2089815;28;20217;-56
2023/05/18 08:16:40;;;;;;;10.25;3.78;;;;;;;14.12;59.39;97193.16;2106287;27;20603;-58
2023/05/18 08:17:42;;;;;;;16.55;4.45;;;;;;;14.11;59.27;97195.84;2098692;28;20218;-57
2023/05/18 08:19:49;;;;;;;10.88;3.72;;;;;;;14.21;58.23;97200.56;2100168;27;20569;-56
2023/05/18 08:20:52;;;;;;;9.25;4.03;;;;;;;14.03;58.81;97204.13;2098223;28;20256;-56
2023/05/18 08:21:54;;;;;;;10.73;3.30;;;;;;;14.07;58.32;97202.16;2099163;28;20720;-56
2023/05/18 08:24:05;;;;;;;17.95;4.22;;;;;;;13.46;60.44;97194.59;2107404;27;21063;-57
2023/05/18 08:25:08;;;;;;;10.50;4.40;;;;;;;13.60;59.77;97164.19;2106599;28;20674;-57
2023/05/18 08:26:11;;;;;;;22.05;3.92;;;;;;;13.92;60.18;97215.13;2107520;28;20224;-58
2023/05/18 08:27:14;;;;;;;16.17;4.50;;;;;;;14.20;58.65;97198.00;2106379;28;20223;-59
2023/05/18 08:29:33;;;;;;;16.27;4.22;;;;;;;14.80;58.11;97200.19;2115073;27;20532;-59
2023/05/18 08:30:34;;;;;;;11.82;3.65;;;;;;;14.39;55.97;97199.72;2110559;28;20237;-59
2023/05/18 08:31:37;;;;;;;17.75;4.80;;;;;;;14.53;57.35;97200.66;2113080;28;20289;-59
2023/05/18 08:32:38;;;;;;;12.27;3.65;;;;;;;14.44;56.28;97202.94;2110785;28;20198;-59
2023/05/18 08:33:40;;;;;;;9.18;3.60;;;;;;;14.37;56.89;97197.13;2098588;28;20196;-59
2023/05/18 08:35:49;;;;;;;5.10;2.90;;;;;;;14.89;57.68;97190.97;2083874;28;20574;-57
2023/05/18 08:36:51;;;;;;;9.55;3.85;;;;;;;15.12;55.86;97195.00;2077219;28;20780;-56
2023/05/18 08:37:53;;;;;;;17.88;4.88;;;;;;;15.24;56.38;97190.00;2072943;28;20720;-57
2023/05/18 08:38:55;;;;;;;8.48;3.75;;;;;;;15.25;57.34;97194.31;2068607;28;20253;-56
2023/05/18 08:39:58;;;;;;;17.88;3.88;;;;;;;14.73;55.92;97190.94;2068484;28;20207;-57
2023/05/18 08:41:22;;;;;;;11.60;3.50;;;;;;;14.01;55.67;97192.84;2066682;28;20202;-57
2023/05/18 08:42:32;;;;;;;11.18;3.95;;;;;;;14.01;57.07;97190.19;2070939;28;20202;-57
2023/05/18 08:43:58;;;;;;;11.73;3.90;;;;;;;14.62;57.53;97194.09;2071596;28;20297;-56
2023/05/18 08:45:10;;;;;;;9.38;4.00;;;;;;;14.40;54.53;97188.25;2071657;28;20252;-57
2023/05/18 08:46:20;;;;;;;14.73;3.88;;;;;;;14.31;57.27;97186.94;2070265;28;20193;-57
2023/05/18 08:47:25;;;;;;;16.67;4.00;;;;;;;14.33;57.98;97182.47;2068518;28;20563;-57
2023/05/18 08:48:30;;;;;;;12.77;3.70;;;;;;;14.76;55.40;97179.41;2067730;28;20241;-57
2023/05/18 08:49:32;;;;;;;11.40;3.42;;;;;;;14.80;55.29;97167.81;2066777;28;20198;-57
2023/05/18 08:50:35;;;;;;;12.18;3.67;;;;;;;15.10;56.39;97178.44;2066682;28;20205;-57
2023/05/18 08:51:37;;;;;;;23.40;3.72;;;;;;;15.28;56.90;97184.47;2075271;28;20232;-57
2023/05/18 08:52:45;;;;;;;11.82;4.00;;;;;;;15.41;55.32;97182.00;2072012;28;20291;-57
2023/05/18 08:53:52;;;;;;;18.13;4.10;;;;;;;15.54;55.92;97183.97;2068587;28;20231;-57
2023/05/18 08:54:56;;;;;;;17.13;3.97;;;;;;;15.61;54.59;97180.06;2071966;28;20209;-57
2023/05/18 08:55:58;;;;;;;13.07;4.13;;;;;;;14.92;54.38;97177.66;2071562;28;20194;-57
2023/05/18 08:57:03;;;;;;;14.55;4.65;;;;;;;15.09;55.26;97176.75;2069955;28;20338;-57
2023/05/18 08:58:06;;;;;;;7.25;3.10;;;;;;;15.56;55.35;97175.03;2068696;28;20320;-57
2023/05/18 08:59:10;;;;;;;19.38;3.65;;;;;;;15.76;54.87;97173.91;2070627;28;20651;-57
2023/05/18 09:00:12;;;;;;;16.35;4.65;;;;;;;16.03;55.04;97172.44;2071903;28;20205;-57
2023/05/18 09:01:14;;;;;;;11.07;3.83;;;;;;;16.21;54.75;97175.78;2066697;28;20200;-57
2023/05/18 09:03:48;;;;;;;12.98;3.85;;;;;;;15.11;55.31;97176.66;2089001;28;21088;-57
2023/05/18 09:04:50;;;;;;;13.40;4.35;;;;;;;15.36;55.10;97168.25;2089824;28;20197;-57
2023/05/18 09:05:53;;;;;;;18.10;3.42;;;;;;;15.73;54.77;97165.34;2090109;28;20226;-57
2023/05/18 09:06:55;;;;;;;13.00;4.25;;;;;;;15.92;54.39;97170.44;2088488;28;20201;-56
2023/05/18 09:07:57;;;;;;;18.35;4.78;;;;;;;16.05;53.96;97155.63;2083701;28;20231;-57
2023/05/18 09:09:03;;;;;;;21.23;3.70;;;;;;;16.16;53.97;97168.13;2084405;28;20248;-57
2023/05/18 09:10:05;;;;;;;12.60;3.70;;;;;;;16.10;53.87;97160.59;2081325;28;20337;-57
2023/05/18 09:11:07;;;;;;;15.13;4.20;;;;;;;15.94;51.15;97135.16;2082255;28;20201;-57
2023/05/18 09:12:10;;;;;;;17.52;4.18;;;;;;;16.07;51.58;97163.41;2080058;28;20199;-57
2023/05/18 09:13:13;;;;;;;11.43;3.97;;;;;;;16.04;52.48;97171.53;2080112;28;20377;-58
2023/05/18 09:14:15;;;;;;;12.02;4.30;;;;;;;16.05;52.04;97162.66;2081740;28;20285;-57
2023/05/18 09:15:16;;;;;;;14.48;4.03;;;;;;;16.14;51.93;97162.97;2080896;28;20245;-56
2023/05/18 09:16:18;;;;;;;11.48;3.28;;;;;;;16.42;52.29;97166.59;2082875;28;20684;-57
2023/05/18 09:17:21;;;;;;;14.13;4.35;;;;;;;16.85;51.80;97160.50;2079712;28;20201;-57
2023/05/18 09:18:23;;;;;;;18.38;4.15;;;;;;;16.71;50.79;97166.63;2081303;28;20356;-56
2023/05/18 09:19:28;;;;;;;12.52;3.75;;;;;;;16.48;51.38;97166.22;2082763;28;20212;-57
2023/05/18 09:20:30;;;;;;;14.70;4.03;;;;;;;17.01;51.49;97173.59;2080694;28;20525;-57
2023/05/18 09:21:32;;;;;;;15.20;3.45;;;;;;;16.92;50.46;97172.38;2080541;28;20309;-57
2023/05/18 09:22:34;;;;;;;12.50;4.53;;;;;;;16.68;50.58;97171.22;2081095;28;20223;-57
2023/05/18 09:23:40;;;;;;;13.98;4.05;;;;;;;16.57;51.64;97170.09;2070227;28;20742;-56
2023/05/18 09:24:41;;;;;;;9.77;3.28;;;;;;;16.70;51.40;97172.00;2072236;28;20198;-57
2023/05/18 09:25:45;;;;;;;13.32;3.28;;;;;;;16.83;50.03;97164.19;2072545;28;20205;-57
2023/05/18 09:26:47;;;;;;;10.38;3.10;;;;;;;16.93;49.04;97129.25;2076058;28;20616;-57
2023/05/18 09:27:51;;;;;;;9.18;2.92;;;;;;;17.21;50.12;97164.44;2073991;28;20195;-57
2023/05/18 09:28:53;;;;;;;8.90;3.05;;;;;;;17.55;49.19;97166.72;2073041;28;20198;-57
2023/05/18 09:29:56;;;;;;;15.35;3.00;;;;;;;17.36;50.33;97161.78;2072130;28;20281;-57
2023/05/18 09:30:58;;;;;;;11.88;3.20;;;;;;;17.58;49.97;97170.00;2073817;28;20213;-57
2023/05/18 09:32:05;;;;;;;9.13;2.95;;;;;;;17.54;49.72;97165.88;2076223;28;20656;-56
2023/05/18 09:33:20;;;;;;;16.40;4.03;;;;;;;17.92;49.58;97161.66;2073557;28;20221;-57
2023/05/18 09:34:23;;;;;;;14.10;3.22;;;;;;;17.43;47.57;97171.84;2078098;28;20220;-57
2023/05/18 09:35:25;;;;;;;15.05;3.97;;;;;;;17.77;48.53;97172.28;2079611;28;20672;-57
2023/05/18 09:36:28;;;;;;;11.75;3.67;;;;;;;17.46;49.28;97166.34;2080624;28;20197;-57
2023/05/18 09:37:30;;;;;;;15.40;3.55;;;;;;;17.75;48.13;97184.75;2082167;28;20280;-57
2023/05/18 09:38:44;;;;;;;20.55;3.10;;;;;;;17.69;47.07;97171.13;2081604;28;20228;-57
2023/05/18 09:40:06;;;;;;;16.60;3.88;;;;;;;17.06;45.79;97160.13;2082342;28;20197;-57
2023/05/18 09:41:13;;;;;;;13.35;3.60;;;;;;;16.11;48.69;97165.78;2079590;28;20597;-56
2023/05/18 09:42:15;;;;;;;13.07;3.67;;;;;;;15.70;48.89;97137.41;2083452;28;20288;-57
2023/05/18 09:43:18;;;;;;;23.13;5.07;;;;;;;16.37;48.68;97170.47;2079997;28;20236;-56
2023/05/18 09:44:32;;;;;;;14.90;3.33;;;;;;;16.31;48.69;97172.50;2080568;28;20197;-56
2023/05/18 09:45:41;;;;;;;11.90;4.55;;;;;;;14.16;51.09;97180.72;2081718;28;20206;-57
2023/05/18 09:46:43;;;;;;;8.27;3.28;;;;;;;15.16;51.54;97180.75;2079288;28;20211;-57
2023/05/18 09:47:45;;;;;;;15.50;3.75;;;;;;;15.66;51.00;97176.22;2078842;28;20204;-57
2023/05/18 09:48:53;;;;;;;14.25;3.47;;;;;;;15.62;50.69;97179.13;2071338;28;20300;-57
2023/05/18 09:49:56;;;;;;;14.40;3.28;;;;;;;15.37;49.20;97174.38;2073262;28;20283;-57
2023/05/18 09:50:58;;;;;;;18.95;3.60;;;;;;;15.41;50.76;97168.00;2072968;28;20229;-56
2023/05/18 09:52:00;;;;;;;14.65;3.90;;;;;;;15.29;50.26;97180.91;2072406;28;20216;-57
2023/05/18 09:53:09;;;;;;;9.32;3.60;;;;;;;15.44;50.77;97165.19;2075623;28;20232;-57
2023/05/18 09:54:10;;;;;;;12.45;3.17;;;;;;;15.58;50.55;97170.56;2080484;28;20199;-56
2023/05/18 09:55:18;;;;;;;11.57;3.30;;;;;;;15.70;50.73;97166.38;2081202;28;20218;-57
2023/05/18 09:56:21;;;;;;;16.05;4.45;;;;;;;15.44;50.89;97165.19;2078659;28;20210;-56
2023/05/18 09:57:23;;;;;;;12.75;3.80;;;;;;;15.86;50.73;97157.59;2076904;28;20242;-56
2023/05/18 09:58:27;;;;;;;8.77;3.92;;;;;;;16.33;49.02;97157.44;2079603;28;20281;-56
2023/05/18 09:59:30;;;;;;;17.17;4.18;;;;;;;16.69;47.88;97160.59;2079321;28;20254;-57
2023/05/18 10:00:35;;;;;;;10.50;3.38;;;;;;;17.11;48.62;97161.53;2078214;28;20207;-56
2023/05/18 10:01:54;;;;;;;14.20;3.75;;;;;;;17.56;47.78;97171.91;2079864;28;20203;-56
2023/05/18 10:02:56;;;;;;;14.20;3.75;;;;;;;17.46;45.89;97161.09;2077292;28;20274;-56
2023/05/18 10:04:02;;;;;;;12.60;2.95;;;;;;;16.97;45.42;97153.63;2078380;28;20227;-56
2023/05/18 10:05:05;;;;;;;8.15;2.95;;;;;;;15.93;48.08;97140.53;2075839;28;20251;-56
2023/05/18 10:06:09;;;;;;;10.65;2.97;;;;;;;16.18;49.42;97161.00;2077590;28;20205;-56
2023/05/18 10:07:12;;;;;;;9.35;2.40;;;;;;;16.62;50.09;97160.13;2075769;28;20232;-56
2023/05/18 10:08:15;;;;;;;8.27;2.80;;;;;;;16.52;49.99;97160.75;2077497;28;20657;-56
2023/05/18 10:09:16;;;;;;;12.68;3.60;;;;;;;15.95;49.59;97160.56;2070330;28;20800;-57
2023/05/18 10:10:21;;;;;;;10.13;3.13;;;;;;;16.07;49.34;97148.44;2078119;28;20200;-56
2023/05/18 10:11:23;;;;;;;9.68;3.15;;;;;;;17.00;48.00;97113.03;2079284;28;20205;-56
2023/05/18 10:12:24;;;;;;;14.88;3.13;;;;;;;16.65;47.81;97154.66;2077316;28;20204;-56
2023/05/18 10:13:27;;;;;;;14.55;3.50;;;;;;;16.84;49.29;97140.34;2075735;28;20236;-56
2023/05/18 10:14:35;;;;;;;9.82;3.22;;;;;;;16.19;48.99;97151.31;2076459;28;20219;-56
2023/05/18 10:15:36;;;;;;;15.18;3.53;;;;;;;16.32;47.99;97131.19;2071316;28;20877;-56
2023/05/18 10:16:40;;;;;;;9.35;3.22;;;;;;;17.07;48.05;97144.19;2068794;28;20206;-56
2023/05/18 10:17:45;;;;;;;11.80;3.70;;;;;;;17.06;47.57;97146.94;2069873;28;20665;-56
2023/05/18 10:18:48;;;;;;;23.20;5.05;;;;;;;17.10;47.47;97135.25;2070866;28;20594;-57
2023/05/18 10:19:54;;;;;;;10.23;3.20;;;;;;;17.65;47.29;97140.53;2071521;28;20217;-56
2023/05/18 10:20:58;;;;;;;10.93;3.05;;;;;;;17.95;46.60;97138.56;2073022;28;20202;-57
2023/05/18 10:22:02;;;;;;;11.73;3.45;;;;;;;18.31;46.60;97141.47;2075216;28;20198;-57
2023/05/18 10:23:10;;;;;;;12.18;3.75;;;;;;;18.82;44.76;97139.78;2069356;28;20229;-59
2023/05/18 10:24:16;;;;;;;16.67;4.45;;;;;;;17.33;44.28;97135.56;2065294;28;20566;-56
2023/05/18 10:25:20;;;;;;;12.00;4.03;;;;;;;17.62;45.15;97126.63;2065546;28;20248;-56
2023/05/18 10:26:27;;;;;;;8.07;2.60;;;;;;;17.68;46.47;97143.00;2069606;28;20210;-57
2023/05/18 10:27:29;;;;;;;15.63;3.80;;;;;;;17.55;47.20;97140.31;2070450;28;20200;-57
2023/05/18 10:28:36;;;;;;;11.73;3.35;;;;;;;17.20;47.88;97143.44;2065819;28;20757;-56
2023/05/18 10:29:39;;;;;;;15.07;3.25;;;;;;;17.33;47.03;97139.06;2066159;28;20191;-56
2023/05/18 10:30:41;;;;;;;12.45;3.35;;;;;;;17.88;46.61;97136.41;2068030;28;20202;-56
2023/05/18 10:31:44;;;;;;;17.10;3.58;;;;;;;18.61;45.66;97142.94;2067817;28;20840;-57
2023/05/18 10:32:47;;;;;;;14.45;3.75;;;;;;;19.05;45.14;97139.00;2066191;28;20558;-57
2023/05/18 10:33:49;;;;;;;13.63;3.30;;;;;;;18.64;44.18;97139.25;2066928;28;20834;-57
2023/05/18 10:34:55;;;;;;;10.95;3.05;;;;;;;18.48;43.71;97139.47;2065660;28;20525;-56
2023/05/18 10:35:57;;;;;;;10.93;3.20;;;;;;;18.17;44.34;97144.19;2068400;28;20580;-56
2023/05/18 10:37:03;;;;;;;13.85;3.67;;;;;;;18.12;45.26;97144.53;2066842;28;20199;-56
2023/05/18 10:38:06;;;;;;;16.48;4.15;;;;;;;18.92;46.22;97135.56;2067904;28;20232;-57
2023/05/18 10:39:09;;;;;;;19.45;3.80;;;;;;;18.90;44.12;97134.81;2068671;28;20272;-56
2023/05/18 10:40:12;;;;;;;11.23;3.28;;;;;;;18.43;44.89;97137.97;2066552;28;20198;-57
2023/05/18 10:41:20;;;;;;;10.85;2.95;;;;;;;18.12;45.66;97147.16;2069033;28;20210;-57
2023/05/18 10:42:24;;;;;;;13.45;2.70;;;;;;;18.05;45.90;97146.72;2068122;28;20639;-57
2023/05/18 10:43:27;;;;;;;9.90;3.05;;;;;;;18.02;45.65;97146.94;2066110;28;20270;-57
2023/05/18 10:44:29;;;;;;;12.55;3.40;;;;;;;17.72;46.48;97141.84;2066764;28;20299;-56
2023/05/18 10:45:36;;;;;;;8.45;3.45;;;;;;;18.05;46.01;97138.78;2068970;28;20194;-56
2023/05/18 10:46:39;;;;;;;16.13;4.05;;;;;;;18.71;44.77;97135.22;2068755;28;20252;-56
2023/05/18 10:47:42;;;;;;;9.50;2.60;;;;;;;19.05;44.82;97132.88;2065771;28;20638;-57
2023/05/18 10:48:47;;;;;;;14.23;4.32;;;;;;;19.19;43.02;97142.47;2067817;28;20550;-56
2023/05/18 10:49:48;;;;;;;16.80;3.30;;;;;;;19.11;43.89;97137.75;2067428;28;20713;-57
2023/05/18 10:50:52;;;;;;;10.77;2.95;;;;;;;18.76;45.09;97138.38;2068762;28;20293;-57
2023/05/18 10:51:55;;;;;;;17.35;3.70;;;;;;;19.38;44.76;97142.00;2067247;28;20612;-57
2023/05/18 10:52:58;;;;;;;10.13;3.22;;;;;;;19.80;43.34;97128.34;2065483;28;20326;-56
2023/05/18 10:54:11;;;;;;;11.18;2.45;;;;;;;19.38;43.67;97131.41;2067492;28;20803;-57
2023/05/18 10:55:14;;;;;;;14.52;3.10;;;;;;;18.98;44.25;97128.97;2065747;28;20256;-56
2023/05/18 10:56:16;;;;;;;15.85;3.78;;;;;;;18.54;45.19;97133.75;2066117;28;20199;-57
2023/05/18 10:57:19;;;;;;;17.48;3.47;;;;;;;18.64;44.73;97124.22;2065067;28;20240;-57
2023/05/18 10:58:24;;;;;;;9.70;2.85;;;;;;;18.38;45.05;97123.38;2064145;28;20258;-57
2023/05/18 10:59:26;;;;;;;8.65;3.40;;;;;;;18.08;45.15;97117.44;2067973;28;20668;-57
2023/05/18 11:00:33;;;;;;;12.18;3.00;;;;;;;17.65;46.50;97130.84;2067475;28;20249;-57
2023/05/18 11:01:35;;;;;;;15.05;3.78;;;;;;;18.44;44.76;97126.44;2064619;28;20199;-57
2023/05/18 11:02:41;;;;;;;12.95;3.55;;;;;;;18.88;44.47;97126.94;2066004;28;20233;-57
2023/05/18 11:03:43;;;;;;;9.68;2.80;;;;;;;18.97;44.46;97136.06;2065514;28;20248;-57
2023/05/18 11:04:46;;;;;;;16.17;3.13;;;;;;;19.04;43.67;97124.06;2066189;28;20610;-57
2023/05/18 11:05:51;;;;;;;13.75;3.05;;;;;;;18.73;43.73;97120.94;2067178;28;20683;-57
2023/05/18 11:06:54;;;;;;;11.95;3.25;;;;;;;17.74;44.87;97116.19;2066580;28;20286;-57
2023/05/18 11:08:04;;;;;;;12.05;3.13;;;;;;;18.28;45.66;97126.69;2064769;28;20550;-57
2023/05/18 11:09:06;;;;;;;17.25;3.38;;;;;;;18.96;44.74;97123.78;2068362;28;20558;-57
2023/05/18 11:10:10;;;;;;;7.75;2.88;;;;;;;19.35;44.34;97131.59;2066809;28;20256;-57
2023/05/18 11:11:11;;;;;;;11.13;3.20;;;;;;;19.74;43.69;97119.03;2064678;28;20206;-57
2023/05/18 11:12:16;;;;;;;11.00;3.10;;;;;;;20.09;43.46;97128.84;2066194;28;20232;-57
2023/05/18 11:13:27;;;;;;;9.05;2.90;;;;;;;19.15;42.72;97122.47;2064123;28;20309;-57
2023/05/18 11:14:30;;;;;;;12.00;3.40;;;;;;;19.45;42.25;97129.13;2068596;28;20290;-57
2023/05/18 11:16:00;;;;;;;13.73;3.72;;;;;;;19.51;42.79;97124.22;2067052;28;20191;-57
2023/05/18 11:17:20;;;;;;;9.20;2.92;;;;;;;19.12;43.30;97134.09;2065523;28;20202;-59
2023/05/18 11:18:43;;;;;;;14.63;3.85;;;;;;;18.66;43.42;97124.94;2063697;28;20258;-57
2023/05/18 11:20:11;;;;;;;19.20;3.00;;;;;;;18.21;44.51;97128.03;2066318;28;20199;-57
2023/05/18 11:21:35;;;;;;;10.10;3.13;;;;;;;18.38;44.01;97134.78;2064716;28;20206;-57
2023/05/18 11:22:56;;;;;;;10.27;2.90;;;;;;;19.27;43.21;97126.88;2067706;28;20226;-57
2023/05/18 11:24:14;;;;;;;11.88;3.90;;;;;;;19.40;42.78;97118.88;2068149;28;20222;-57
2023/05/18 11:25:31;;;;;;;13.10;3.30;;;;;;;19.79;42.52;97118.72;2064685;28;20230;-57
2023/05/18 11:26:38;;;;;;;6.80;3.08;;;;;;;19.67;42.93;97129.25;2062512;28;20198;-57
2023/05/18 11:27:40;;;;;;;9.13;2.95;;;;;;;19.89;40.61;97117.91;2061701;28;20199;-57
2023/05/18 11:28:42;;;;;;;8.07;2.58;;;;;;;19.87;41.99;97121.66;2065942;28;20218;-57
2023/05/18 11:29:45;;;;;;;12.10;3.45;;;;;;;20.31;41.99;97117.44;2064409;28;20265;-57
2023/05/18 11:30:48;;;;;;;12.70;3.28;;;;;;;20.05;41.40;97104.38;2065298;28;20203;-57
2023/05/18 11:31:54;;;;;;;15.63;3.20;;;;;;;20.41;40.97;97106.13;2066094;28;20203;-57
2023/05/18 11:33:13;;;;;;;10.07;2.95;;;;;;;20.44;41.51;97116.50;2064349;28;20704;-57
2023/05/18 11:34:39;;;;;;;8.40;2.83;;;;;;;20.31;41.77;97122.72;2061903;28;20203;-57
2023/05/18 11:35:59;;;;;;;14.98;2.97;;;;;;;19.99;41.61;97114.59;2062104;28;20299;-57
2023/05/18 11:37:01;;;;;;;12.70;3.38;;;;;;;19.93;41.55;97115.88;2061019;28;20252;-57
2023/05/18 11:38:07;;;;;;;9.80;3.22;;;;;;;20.04;41.43;97110.63;2065599;28;20300;-57
2023/05/18 11:39:10;;;;;;;8.90;2.85;;;;;;;20.35;41.53;97104.78;2064411;28;20204;-57
2023/05/18 11:40:32;;;;;;;10.90;3.33;;;;;;;20.46;41.39;97117.22;2066816;28;20237;-57
2023/05/18 11:41:42;;;;;;;10.88;3.25;;;;;;;20.90;40.86;97115.59;2065684;28;20207;-57
2023/05/18 11:42:57;;;;;;;9.88;3.22;;;;;;;20.57;40.96;97114.59;2064499;28;20256;-56
2023/05/18 11:44:10;;;;;;;15.40;2.97;;;;;;;21.15;40.67;97116.28;2062512;28;20614;-57
2023/05/18 11:45:12;;;;;;;7.15;2.58;;;;;;;21.46;40.86;97111.16;2062299;28;20253;-57
2023/05/18 11:46:17;;;;;;;7.15;2.58;;;;;;;21.92;39.73;97111.84;2059561;28;20199;-57
2023/05/18 11:47:19;;;;;;;15.02;2.90;;;;;;;21.59;39.77;97100.38;2064428;28;20660;-57
2023/05/18 11:48:25;;;;;;;7.78;2.30;;;;;;;21.16;40.29;97104.69;2066377;28;20230;-57
2023/05/18 11:49:31;;;;;;;13.50;3.25;;;;;;;20.45;40.49;97111.06;2067443;28;20198;-57
2023/05/18 11:50:32;;;;;;;12.48;3.22;;;;;;;19.71;41.40;97116.63;2064695;28;20202;-56
2023/05/18 11:52:01;;;;;;;11.98;3.75;;;;;;;19.92;41.05;97105.41;2065597;28;20203;-57
2023/05/18 11:53:02;;;;;;;13.40;2.78;;;;;;;20.42;39.60;97107.78;2063507;28;20239;-57
2023/05/18 11:54:07;;;;;;;8.02;2.72;;;;;;;20.60;40.13;97109.03;2062583;28;20204;-56
2023/05/18 11:55:13;;;;;;;12.02;2.67;;;;;;;20.77;39.92;97110.38;2064797;28;20203;-57
2023/05/18 11:56:14;;;;;;;9.77;2.80;;;;;;;21.23;40.01;97108.53;2064506;28;20209;-57
2023/05/18 11:57:17;;;;;;;8.93;3.40;;;;;;;21.53;38.27;97109.66;2063019;28;20203;-57
2023/05/18 11:58:20;;;;;;;15.73;2.95;;;;;;;21.58;38.14;97099.53;2065674;28;20314;-57
2023/05/18 11:59:41;;;;;;;13.40;3.97;;;;;;;20.84;39.41;97116.06;2057155;28;20223;-57
2023/05/18 12:00:44;;;;;;;10.25;3.15;;;;;;;20.88;39.39;97110.38;2065219;28;20554;-57
2023/05/18 12:01:45;;;;;;;7.97;2.80;;;;;;;20.81;39.87;97117.16;2065656;28;20213;-57
2023/05/18 12:02:47;;;;;;;7.82;3.10;;;;;;;20.54;39.18;97110.38;2066246;28;20673;-57
2023/05/18 12:03:50;;;;;;;15.00;3.15;;;;;;;20.94;38.07;97109.06;2067606;28;20794;-57
2023/05/18 12:04:54;;;;;;;9.15;2.92;;;;;;;21.48;39.83;97115.38;2065486;28;20246;-57
2023/05/18 12:05:59;;;;;;;15.23;3.47;;;;;;;21.97;38.89;97117.63;2066450;28;20198;-57
2023/05/18 12:07:04;;;;;;;9.93;2.83;;;;;;;21.97;37.13;97106.97;2063290;28;20199;-56
2023/05/18 12:08:07;;;;;;;13.82;3.10;;;;;;;21.57;37.61;97105.81;2064488;28;20234;-58
2023/05/18 12:09:09;;;;;;;11.18;3.15;;;;;;;21.30;38.99;97103.56;2064892;28;20261;-57
2023/05/18 12:10:13;;;;;;;9.77;2.90;;;;;;;21.24;39.69;97094.28;2067190;28;20562;-57
2023/05/18 12:11:15;;;;;;;14.68;2.97;;;;;;;20.98;40.51;97104.34;2066660;28;20206;-57
2023/05/18 12:12:22;;;;;;;13.98;2.97;;;;;;;20.77;40.12;97099.75;2066777;28;20563;-57
2023/05/18 12:13:24;;;;;;;10.73;2.97;;;;;;;21.11;39.78;97098.91;2066071;28;20230;-57
2023/05/18 12:14:26;;;;;;;12.05;3.05;;;;;;;21.10;39.45;97100.69;2065811;28;20230;-57
2023/05/18 12:15:29;;;;;;;12.43;3.25;;;;;;;20.70;39.56;97096.75;2065778;28;20686;-57
2023/05/18 12:16:30;;;;;;;11.65;3.25;;;;;;;20.60;39.19;97095.78;2069106;28;20588;-57
2023/05/18 12:17:42;;;;;;;8.95;2.78;;;;;;;20.63;39.73;97097.34;2068878;28;20727;-57
2023/05/18 12:18:49;;;;;;;13.35;3.47;;;;;;;21.33;38.79;97092.69;2065840;28;20230;-57
2023/05/18 12:19:50;;;;;;;14.18;2.42;;;;;;;21.12;38.45;97092.63;2065154;28;20205;-57
2023/05/18 12:20:52;;;;;;;13.18;3.72;;;;;;;20.20;38.73;97089.09;2065739;28;20270;-57
2023/05/18 12:21:53;;;;;;;7.85;3.10;;;;;;;20.59;39.39;97088.78;2067507;28;20194;-57
2023/05/18 12:23:00;;;;;;;6.78;2.50;;;;;;;20.68;38.33;97092.50;2067176;28;20667;-57
2023/05/18 12:24:02;;;;;;;13.07;3.05;;;;;;;20.75;38.70;97087.59;2068721;28;20222;-57
2023/05/18 12:25:04;;;;;;;13.02;2.70;;;;;;;19.94;38.78;97087.59;2067026;28;20214;-56
2023/05/18 12:26:06;;;;;;;8.50;2.80;;;;;;;20.37;39.31;97092.25;2065893;28;20601;-57
2023/05/18 12:27:10;;;;;;;12.82;2.88;;;;;;;20.94;38.97;97081.66;2065041;28;20203;-57
2023/05/18 12:28:12;;;;;;;8.88;2.50;;;;;;;21.37;38.89;97094.97;2061999;28;20255;-59
2023/05/18 12:29:18;;;;;;;9.95;3.10;;;;;;;22.18;38.04;97091.88;2064105;28;20297;-59
2023/05/18 12:30:25;;;;;;;11.93;2.90;;;;;;;21.90;36.94;97084.53;2066400;28;20202;-59
2023/05/18 12:31:26;;;;;;;9.50;2.55;;;;;;;21.96;36.90;97094.66;2067620;28;20195;-59
2023/05/18 12:32:29;;;;;;;12.45;3.13;;;;;;;21.56;37.25;97077.56;2065130;28;20651;-59
2023/05/18 12:33:32;;;;;;;9.60;3.03;;;;;;;21.61;36.68;97091.31;2066396;28;20729;-59
2023/05/18 12:34:34;;;;;;;8.38;3.00;;;;;;;21.89;36.27;97091.69;2065827;28;20245;-59
2023/05/18 12:35:35;;;;;;;8.07;2.90;;;;;;;22.05;36.94;97087.72;2065139;28;20200;-59
2023/05/18 12:36:51;;;;;;;8.52;2.03;;;;;;;21.19;37.05;97084.03;2064710;28;20203;-59
2023/05/18 12:37:54;;;;;;;8.75;2.50;;;;;;;21.02;38.25;97081.91;2064013;28;20206;-59
2023/05/18 12:38:56;;;;;;;12.98;3.22;;;;;;;22.08;38.14;97085.66;2063111;28;20536;-59
2023/05/18 12:39:59;;;;;;;12.90;2.58;;;;;;;22.04;36.36;97086.03;2066311;28;20203;-59
2023/05/18 12:41:01;;;;;;;5.22;1.92;;;;;;;21.79;37.70;97086.28;2065896;28;20218;-59
2023/05/18 12:42:13;;;;;;;13.35;3.03;;;;;;;22.77;37.37;97078.06;2065397;28;20207;-59
2023/05/18 12:43:15;;;;;;;9.93;2.65;;;;;;;22.97;36.68;97090.44;2067478;28;20277;-59
2023/05/18 12:44:17;;;;;;;6.57;2.47;;;;;;;22.75;37.37;97078.16;2067796;28;20768;-58
2023/05/18 12:45:22;;;;;;;10.23;3.53;;;;;;;22.53;37.65;97087.19;2070647;28;20690;-58
2023/05/18 12:46:23;;;;;;;8.77;2.20;;;;;;;22.10;38.41;97080.19;2067285;28;20241;-58
2023/05/18 12:47:27;;;;;;;11.35;2.70;;;;;;;22.04;38.73;97078.88;2064200;28;20813;-58
2023/05/18 12:48:37;;;;;;;9.27;2.40;;;;;;;21.35;38.34;97078.31;2066362;28;20574;-59
2023/05/18 12:49:40;;;;;;;9.95;3.15;;;;;;;21.33;38.64;97071.44;2063003;28;20228;-58
2023/05/18 12:50:52;;;;;;;5.20;2.13;;;;;;;21.78;37.77;97081.09;2063402;28;20196;-59
2023/05/18 12:51:54;;;;;;;15.95;2.80;;;;;;;22.11;37.09;97084.56;2065114;28;20215;-59
2023/05/18 12:52:56;;;;;;;11.43;3.60;;;;;;;22.24;37.13;97065.72;2065853;28;20199;-59
2023/05/18 12:53:58;;;;;;;10.50;2.85;;;;;;;23.02;36.59;97070.53;2066716;28;20234;-59